createdAt,value
2022-11-13T00:02:22.510Z,100984.97
2022-11-13T00:07:24.226Z,100997.50
2022-11-13T00:12:25.978Z,100989.09
2022-11-13T00:17:28.575Z,100988.06
2022-11-13T00:22:30.262Z,100979.81
2022-11-13T00:27:32.066Z,100973.22
2022-11-13T00:32:33.724Z,100987.84
2022-11-13T00:37:35.355Z,100967.94
2022-11-13T00:42:37.054Z,100962.31
2022-11-13T00:47:38.662Z,100947.22
2022-11-13T00:52:40.320Z,100939.22
2022-11-13T00:57:41.984Z,100921.50
2022-11-13T01:02:43.639Z,100917.31
2022-11-13T01:07:45.259Z,100924.13
2022-11-13T01:12:46.973Z,100917.56
2022-11-13T01:17:49.460Z,100914.88
2022-11-13T01:22:51.088Z,100912.16
2022-11-13T01:27:52.735Z,100913.03
2022-11-13T01:32:54.405Z,100918.81
2022-11-13T01:37:56.017Z,100915.31
2022-11-13T01:42:57.692Z,100913.03
2022-11-13T01:47:59.658Z,100900.69
2022-11-13T01:53:01.343Z,100888.88
2022-11-13T01:58:06.149Z,100876.13
2022-11-13T02:03:08.101Z,100878.91
2022-11-13T02:08:09.887Z,100886.47
2022-11-13T02:13:12.625Z,100917.44
2022-11-13T02:18:16.615Z,100892.19
2022-11-13T02:23:30.955Z,100889.56
2022-11-13T02:28:32.571Z,100876.25
2022-11-13T02:33:34.265Z,100878.59
2022-11-13T02:38:36.601Z,100878.88
2022-11-13T02:43:38.245Z,100882.50
2022-11-13T02:48:40.038Z,100874.16
2022-11-13T02:53:41.659Z,100866.47
2022-11-13T02:58:43.266Z,100856.13
2022-11-13T03:04:00.255Z,100854.34
2022-11-13T03:09:01.955Z,100845.47
2022-11-13T03:14:03.844Z,100854.47
2022-11-13T03:19:05.503Z,100851.22
2022-11-13T03:24:07.196Z,100832.56
2022-11-13T03:29:08.799Z,100830.75
2022-11-13T03:34:10.490Z,100817.16
2022-11-13T03:39:12.143Z,100827.38
2022-11-13T03:44:14.799Z,100815.03
2022-11-13T03:49:16.390Z,100805.53
2022-11-13T03:54:18.094Z,100827.00
2022-11-13T03:59:19.704Z,100825.22
2022-11-13T04:04:21.456Z,100809.88
2022-11-13T04:09:23.080Z,100792.91
2022-11-13T04:14:24.740Z,100795.50
2022-11-13T04:19:26.349Z,100785.69
2022-11-13T04:24:27.961Z,100792.00
2022-11-13T04:29:29.568Z,100788.19
2022-11-13T04:34:31.195Z,100790.09
2022-11-13T04:39:32.845Z,100773.22
2022-11-13T04:44:34.499Z,100763.31
2022-11-13T04:49:36.253Z,100772.25
2022-11-13T04:54:37.899Z,100751.06
2022-11-13T04:59:39.506Z,100750.28
2022-11-13T05:04:41.104Z,100769.88
2022-11-13T05:09:42.832Z,100747.38
2022-11-13T05:14:44.517Z,100762.66
2022-11-13T05:19:46.200Z,100749.81
2022-11-13T05:24:47.798Z,100761.00
2022-11-13T05:29:49.397Z,100740.19
2022-11-13T05:34:50.993Z,100740.06
2022-11-13T05:39:52.655Z,100725.34
2022-11-13T05:44:54.294Z,100716.63
2022-11-13T05:49:56.137Z,100730.78
2022-11-13T05:54:57.733Z,100728.72
2022-11-13T05:59:59.326Z,100714.50
2022-11-13T06:05:01.051Z,100699.38
2022-11-13T06:10:02.655Z,100690.22
2022-11-13T06:15:04.624Z,100684.84
2022-11-13T06:20:06.649Z,100689.06
2022-11-13T06:25:08.453Z,100691.28
2022-11-13T06:30:10.658Z,100680.66
2022-11-13T06:35:12.315Z,100690.84
2022-11-13T06:40:14.236Z,100696.31
2022-11-13T06:45:15.847Z,100700.75
2022-11-13T06:50:17.458Z,100697.56
2022-11-13T06:55:19.099Z,100684.97
2022-11-13T07:00:20.844Z,100678.94
2022-11-13T07:05:22.587Z,100695.78
2022-11-13T07:10:24.221Z,100690.59
2022-11-13T07:15:26.534Z,100685.72
2022-11-13T07:20:28.173Z,100683.63
2022-11-13T07:25:30.786Z,100687.91
2022-11-13T07:30:32.426Z,100676.00
2022-11-13T07:35:34.025Z,100678.91
2022-11-13T07:40:35.660Z,100666.19
2022-11-13T07:45:37.305Z,100666.28
2022-11-13T07:50:39.571Z,100660.63
2022-11-13T07:55:41.244Z,100636.09
2022-11-13T08:00:42.938Z,100647.47
2022-11-13T08:05:44.697Z,100634.50
2022-11-13T08:10:46.328Z,100609.97
2022-11-13T08:15:47.940Z,100648.63
2022-11-13T08:20:49.593Z,100628.53
2022-11-13T08:25:51.290Z,100649.03
2022-11-13T08:30:52.935Z,100638.63
2022-11-13T08:36:00.067Z,100641.59
2022-11-13T08:41:08.916Z,100631.28
2022-11-13T08:46:11.127Z,100611.28
2022-11-13T08:51:12.759Z,100614.19
2022-11-13T08:56:14.421Z,100609.31
2022-11-13T09:01:16.946Z,100600.69
2022-11-13T09:06:18.579Z,100606.88
2022-11-13T09:11:20.351Z,100592.66
2022-11-13T09:16:22.046Z,100592.66
2022-11-13T09:21:23.759Z,100588.38
2022-11-13T09:26:25.360Z,100591.38
2022-11-13T09:31:27.033Z,100598.44
2022-11-13T09:36:28.688Z,100589.56
2022-11-13T09:41:37.553Z,100582.84
2022-11-13T09:46:45.042Z,100575.19
2022-11-13T09:51:56.407Z,100588.34
2022-11-13T09:57:26.492Z,100617.25
2022-11-13T10:02:54.630Z,100580.09
2022-11-13T10:08:18.004Z,100553.00
2022-11-13T10:13:25.889Z,100550.81
2022-11-13T10:18:33.632Z,100537.94
2022-11-13T10:23:37.927Z,100544.78
2022-11-13T10:28:55.789Z,100551.38
2022-11-13T10:33:57.618Z,100550.88
2022-11-13T10:39:05.167Z,100579.75
2022-11-13T10:44:19.351Z,100528.94
2022-11-13T10:49:26.386Z,100546.41
2022-11-13T10:54:31.225Z,100531.88
2022-11-13T10:59:41.955Z,100516.41
2022-11-13T11:06:12.021Z,100486.19
2022-11-13T11:11:36.392Z,100461.13
2022-11-13T11:16:39.012Z,100447.78
2022-11-13T11:21:42.782Z,100468.81
2022-11-13T11:26:46.867Z,100457.56
2022-11-13T11:31:57.323Z,100454.22
2022-11-13T11:37:14.902Z,100465.50
2022-11-13T11:42:38.705Z,100439.94
2022-11-13T11:47:40.512Z,100435.66
2022-11-13T11:53:03.183Z,100456.69
2022-11-13T11:58:22.698Z,100410.75
2022-11-13T12:03:45.473Z,100400.94
2022-11-13T12:09:24.745Z,100390.16
2022-11-13T12:14:32.150Z,100452.66
2022-11-13T12:20:09.096Z,100410.78
2022-11-13T12:25:57.088Z,100436.06
2022-11-13T12:31:19.918Z,100416.97
2022-11-13T12:36:22.650Z,100385.88
2022-11-13T12:41:43.854Z,100417.22
2022-11-13T12:46:46.639Z,100424.56
2022-11-13T12:52:01.395Z,100378.88
2022-11-13T12:57:27.262Z,100349.38
2022-11-13T13:02:50.174Z,100359.63
2022-11-13T13:07:55.591Z,100373.25
2022-11-13T13:13:05.090Z,100366.44
2022-11-13T13:18:11.715Z,100374.56
2022-11-13T13:23:25.651Z,100369.50
2022-11-13T13:28:27.432Z,100354.81
2022-11-13T13:33:41.505Z,100343.78
2022-11-13T13:39:08.891Z,100332.06
2022-11-13T13:44:32.363Z,100325.59
2022-11-13T13:49:33.989Z,100315.38
2022-11-13T13:54:36.850Z,100317.53
2022-11-13T13:59:38.587Z,100303.25
2022-11-13T14:04:46.308Z,100296.81
2022-11-13T14:09:47.889Z,100293.47
2022-11-13T14:14:49.613Z,100299.22
2022-11-13T14:19:56.509Z,100287.00
2022-11-13T14:25:00.663Z,100280.91
2022-11-13T14:30:03.268Z,100270.13
2022-11-13T14:35:05.939Z,100270.13
2022-11-13T14:40:38.291Z,100287.38
2022-11-13T14:45:40.027Z,100257.06
2022-11-13T14:50:51.216Z,100262.31
2022-11-13T14:55:55.662Z,100266.31
2022-11-13T15:00:58.906Z,100251.50
2022-11-13T15:06:00.496Z,100247.56
2022-11-13T15:11:02.238Z,100253.84
2022-11-13T15:16:04.349Z,100240.41
2022-11-13T15:21:06.388Z,100228.09
2022-11-13T15:26:11.124Z,100237.69
2022-11-13T15:31:28.862Z,100238.41
2022-11-13T15:36:31.666Z,100252.91
2022-11-13T15:41:34.199Z,100250.50
2022-11-13T15:46:35.784Z,100235.94
2022-11-13T15:51:39.709Z,100214.47
2022-11-13T15:56:42.162Z,100203.97
2022-11-13T16:01:43.907Z,100156.00
2022-11-13T16:06:46.126Z,100187.69
2022-11-13T16:11:47.731Z,100181.28
2022-11-13T16:16:50.630Z,100169.50
2022-11-13T16:21:54.212Z,100166.66
2022-11-13T16:26:58.477Z,100140.50
2022-11-13T16:32:00.056Z,100143.09
2022-11-13T16:37:01.764Z,100142.34
2022-11-13T16:42:03.450Z,100102.75
2022-11-13T16:47:25.970Z,100100.00
2022-11-13T16:52:27.980Z,100092.59
2022-11-13T16:57:29.611Z,100129.19
2022-11-13T17:02:31.425Z,100094.94
2022-11-13T17:07:33.124Z,100123.66
2022-11-13T17:12:34.691Z,100078.22
2022-11-13T17:17:36.324Z,100104.25
2022-11-13T17:22:37.982Z,100093.19
2022-11-13T17:27:39.550Z,100074.47
2022-11-13T17:32:41.158Z,100065.91
2022-11-13T17:37:43.332Z,100067.88
2022-11-13T17:42:47.873Z,100082.81
2022-11-13T17:47:50.115Z,100071.66
2022-11-13T17:52:51.855Z,100069.19
2022-11-13T17:57:53.584Z,100043.09
2022-11-13T18:02:57.984Z,100075.22
2022-11-13T18:08:00.369Z,100086.59
2022-11-13T18:13:02.145Z,100042.03
2022-11-13T18:18:05.379Z,100052.72
2022-11-13T18:23:06.947Z,100047.56
2022-11-13T18:28:09.098Z,100011.34
2022-11-13T18:33:10.803Z,100046.78
2022-11-13T18:38:12.345Z,100067.34
2022-11-13T18:43:15.220Z,100025.88
2022-11-13T18:48:16.785Z,100068.59
2022-11-13T18:53:18.647Z,100034.34
2022-11-13T18:58:20.280Z,100052.78
2022-11-13T19:03:23.756Z,100052.47
2022-11-13T19:08:25.402Z,100053.88
2022-11-13T19:13:27.408Z,100070.63
2022-11-13T19:18:29.285Z,100077.00
2022-11-13T19:23:33.322Z,100048.78
2022-11-13T19:28:40.911Z,100046.88
2022-11-13T19:33:42.999Z,100061.19
2022-11-13T19:38:45.138Z,100070.88
2022-11-13T19:43:48.040Z,100071.75
2022-11-13T19:48:50.175Z,100071.38
2022-11-13T19:53:56.906Z,100082.41
2022-11-13T19:58:58.626Z,100061.91
2022-11-13T20:04:02.377Z,100049.53
2022-11-13T20:09:04.607Z,100073.59
2022-11-13T20:14:06.144Z,100045.16
2022-11-13T20:19:07.809Z,100039.59
2022-11-13T20:24:10.117Z,100058.88
2022-11-13T20:29:11.784Z,100080.94
2022-11-13T20:34:14.631Z,100068.78
2022-11-13T20:39:16.379Z,100041.25
2022-11-13T20:44:17.942Z,100081.13
2022-11-13T20:49:19.995Z,100043.50
2022-11-13T20:54:21.659Z,100060.81
2022-11-13T20:59:23.390Z,100035.88
2022-11-13T21:04:24.971Z,100029.56
2022-11-13T21:09:26.602Z,100059.06
2022-11-13T21:14:28.200Z,100074.81
2022-11-13T21:19:29.863Z,100062.59
2022-11-13T21:24:32.006Z,100085.78
2022-11-13T21:29:33.585Z,100060.63
2022-11-13T21:34:35.158Z,100063.06
2022-11-13T21:39:36.725Z,100079.75
2022-11-13T21:44:38.321Z,100046.72
2022-11-13T21:49:40.144Z,100033.75
2022-11-13T21:54:41.746Z,100017.81
2022-11-13T21:59:43.399Z,100015.50
2022-11-13T22:04:44.991Z,100032.66
2022-11-13T22:09:46.569Z,100029.03
2022-11-13T22:14:48.248Z,100047.53
2022-11-13T22:19:49.863Z,100055.19
2022-11-13T22:24:51.482Z,100036.19
2022-11-13T22:29:54.022Z,100001.88
2022-11-13T22:34:55.627Z,100032.25
2022-11-13T22:39:57.179Z,100015.13
2022-11-13T22:44:58.855Z,99984.53
2022-11-13T22:50:00.740Z,99957.34
2022-11-13T22:55:02.308Z,99951.38
2022-11-13T23:00:09.346Z,99968.22
2022-11-13T23:05:11.048Z,99952.03
2022-11-13T23:10:12.943Z,99954.19
2022-11-13T23:15:14.498Z,99963.34
2022-11-13T23:20:16.074Z,99934.44
2022-11-13T23:25:17.810Z,99938.38
2022-11-13T23:30:19.654Z,99947.31
2022-11-13T23:35:21.281Z,99926.59
2022-11-13T23:40:23.016Z,99926.50
2022-11-13T23:45:24.600Z,99919.84
2022-11-13T23:50:26.639Z,99950.81
2022-11-13T23:55:28.310Z,99921.41
